createdAt,value
2023-09-03T00:02:07.950Z,99.90
2023-09-03T00:04:34.733Z,99.90
2023-09-03T00:07:01.528Z,99.90
2023-09-03T00:09:28.222Z,99.90
2023-09-03T00:11:54.891Z,99.90
2023-09-03T00:14:21.629Z,99.90
2023-09-03T00:16:48.347Z,99.90
2023-09-03T00:19:15.120Z,99.90
2023-09-03T00:21:41.808Z,99.90
2023-09-03T00:24:08.569Z,99.90
2023-09-03T00:26:35.329Z,99.90
2023-09-03T00:29:02.347Z,99.90
2023-09-03T00:31:29.161Z,99.90
2023-09-03T00:33:55.919Z,99.90
2023-09-03T00:36:22.665Z,99.90
2023-09-03T00:38:54.047Z,99.90
2023-09-03T00:41:20.822Z,99.90
2023-09-03T00:43:47.624Z,99.90
2023-09-03T00:46:15.110Z,99.90
2023-09-03T00:48:42.064Z,99.90
2023-09-03T00:51:10.655Z,99.90
2023-09-03T00:53:40.762Z,99.90
2023-09-03T00:56:12.218Z,99.90
2023-09-03T00:58:39.215Z,99.90
2023-09-03T01:01:06.816Z,99.90
2023-09-03T01:03:33.896Z,99.90
2023-09-03T01:06:00.781Z,99.90
2023-09-03T01:08:28.565Z,99.90
2023-09-03T01:11:19.756Z,99.90
2023-09-03T01:14:08.001Z,99.90
2023-09-03T01:16:43.414Z,99.90
2023-09-03T01:19:41.275Z,99.90
2023-09-03T01:22:43.143Z,99.90
2023-09-03T01:25:48.629Z,99.90
2023-09-03T01:28:31.100Z,99.90
2023-09-03T01:31:01.274Z,99.90
2023-09-03T01:33:30.651Z,99.90
2023-09-03T01:35:58.540Z,99.90
2023-09-03T01:38:25.859Z,99.90
2023-09-03T01:40:52.943Z,99.90
2023-09-03T01:43:19.744Z,99.90
2023-09-03T01:46:08.663Z,99.90
2023-09-03T01:48:47.625Z,99.90
2023-09-03T01:51:37.621Z,99.90
2023-09-03T01:54:15.702Z,99.90
2023-09-03T01:56:51.392Z,99.90
2023-09-03T01:59:24.575Z,99.90
2023-09-03T02:01:52.482Z,99.90
2023-09-03T02:04:20.549Z,99.90
2023-09-03T02:06:50.238Z,99.90
2023-09-03T02:09:16.922Z,99.90
2023-09-03T02:11:43.705Z,99.90
2023-09-03T02:14:10.472Z,99.90
2023-09-03T02:16:37.287Z,99.90
2023-09-03T02:19:04.181Z,99.90
2023-09-03T02:21:31.207Z,99.90
2023-09-03T02:23:57.906Z,99.90
2023-09-03T02:26:24.625Z,99.90
2023-09-03T02:28:51.352Z,99.90
2023-09-03T02:31:18.096Z,99.90
2023-09-03T02:33:44.880Z,99.90
2023-09-03T02:36:11.744Z,99.90
2023-09-03T02:38:40.984Z,99.90
2023-09-03T02:41:07.730Z,99.90
2023-09-03T02:43:34.441Z,99.90
2023-09-03T02:46:01.215Z,99.90
2023-09-03T02:48:27.974Z,99.90
2023-09-03T02:50:54.997Z,99.90
2023-09-03T02:53:21.925Z,99.90
2023-09-03T02:55:48.641Z,99.90
2023-09-03T02:58:15.456Z,99.90
2023-09-03T03:00:42.161Z,99.90
2023-09-03T03:03:09.003Z,99.90
2023-09-03T03:05:35.889Z,99.90
2023-09-03T03:08:04.081Z,99.90
2023-09-03T03:10:31.765Z,99.90
2023-09-03T03:12:58.723Z,99.90
2023-09-03T03:15:25.618Z,99.90
2023-09-03T03:17:53.096Z,99.90
2023-09-03T03:20:21.632Z,99.90
2023-09-03T03:22:48.383Z,99.90
2023-09-03T03:25:15.343Z,99.90
2023-09-03T03:27:42.186Z,99.90
2023-09-03T03:30:09.406Z,99.90
2023-09-03T03:32:36.300Z,99.90
2023-09-03T03:35:03.252Z,99.90
2023-09-03T03:37:30.412Z,99.90
2023-09-03T03:39:57.166Z,99.90
2023-09-03T03:42:23.881Z,99.90
2023-09-03T03:44:50.700Z,99.90
2023-09-03T03:47:18.613Z,99.90
2023-09-03T03:49:45.309Z,99.90
2023-09-03T03:52:12.132Z,99.90
2023-09-03T03:54:38.934Z,99.90
2023-09-03T03:57:06.049Z,99.90
2023-09-03T03:59:33.408Z,99.90
2023-09-03T04:02:00.931Z,99.90
2023-09-03T04:04:28.332Z,99.90
2023-09-03T04:06:55.152Z,99.90
2023-09-03T04:09:21.886Z,99.90
2023-09-03T04:11:49.837Z,99.90
2023-09-03T04:14:16.541Z,99.90
2023-09-03T04:16:43.294Z,99.90
2023-09-03T04:19:10.106Z,99.90
2023-09-03T04:21:36.843Z,99.90
2023-09-03T04:24:04.163Z,99.90
2023-09-03T04:26:30.908Z,99.90
2023-09-03T04:28:57.686Z,99.90
2023-09-03T04:31:24.983Z,99.90
2023-09-03T04:33:52.588Z,99.90
2023-09-03T04:36:19.333Z,99.90
2023-09-03T04:38:46.054Z,99.90
2023-09-03T04:41:15.875Z,99.90
2023-09-03T04:43:48.026Z,99.90
2023-09-03T04:46:18.654Z,99.90
2023-09-03T04:48:45.387Z,99.90
2023-09-03T04:51:12.125Z,99.90
2023-09-03T04:53:40.094Z,99.90
2023-09-03T04:56:13.276Z,99.90
2023-09-03T04:58:41.443Z,99.90
2023-09-03T05:01:18.468Z,99.90
2023-09-03T05:03:51.785Z,99.90
2023-09-03T05:06:20.849Z,99.90
2023-09-03T05:08:50.366Z,99.90
2023-09-03T05:11:18.621Z,99.90
2023-09-03T05:13:47.083Z,99.90
2023-09-03T05:16:15.571Z,99.90
2023-09-03T05:18:43.233Z,99.90
2023-09-03T05:21:11.278Z,99.90
2023-09-03T05:23:38.778Z,99.90
2023-09-03T05:26:06.181Z,99.90
2023-09-03T05:28:34.491Z,99.90
2023-09-03T05:31:01.478Z,99.90
2023-09-03T05:33:28.527Z,99.90
2023-09-03T05:35:55.511Z,99.90
2023-09-03T05:38:22.624Z,99.90
2023-09-03T05:40:49.645Z,99.90
2023-09-03T05:43:16.561Z,99.90
2023-09-03T05:45:45.567Z,99.90
2023-09-03T05:48:13.383Z,99.90
2023-09-03T05:50:40.311Z,99.90
2023-09-03T05:53:07.350Z,99.90
2023-09-03T05:55:35.599Z,99.90
2023-09-03T05:58:02.310Z,99.90
2023-09-03T06:00:29.612Z,99.90
2023-09-03T06:02:58.833Z,99.90
2023-09-03T06:05:29.071Z,99.90
2023-09-03T06:07:58.745Z,99.90
2023-09-03T06:10:26.151Z,99.90
2023-09-03T06:12:53.106Z,99.90
2023-09-03T06:15:19.951Z,99.90
2023-09-03T06:17:50.755Z,99.90
2023-09-03T06:20:17.743Z,99.90
2023-09-03T06:22:44.473Z,99.90
2023-09-03T06:25:11.177Z,99.90
2023-09-03T06:27:37.926Z,99.90
2023-09-03T06:30:05.085Z,99.90
2023-09-03T06:32:32.222Z,99.90
2023-09-03T06:34:59.042Z,99.90
2023-09-03T06:37:25.797Z,99.90
2023-09-03T06:39:52.546Z,99.90
2023-09-03T06:42:19.350Z,99.90
2023-09-03T06:44:46.025Z,99.90
2023-09-03T06:47:12.854Z,99.90
2023-09-03T06:49:39.834Z,99.90
2023-09-03T06:52:06.850Z,99.90
2023-09-03T06:54:33.588Z,99.90
2023-09-03T06:57:00.592Z,99.90
2023-09-03T06:59:34.322Z,99.90
2023-09-03T07:02:02.411Z,99.90
2023-09-03T07:04:29.195Z,99.90
2023-09-03T07:06:55.909Z,99.90
2023-09-03T07:09:22.614Z,99.90
2023-09-03T07:11:49.378Z,99.90
2023-09-03T07:14:16.077Z,99.90
2023-09-03T07:16:42.892Z,99.90
2023-09-03T07:19:09.692Z,99.90
2023-09-03T07:21:36.407Z,99.90
2023-09-03T07:24:03.190Z,99.90
2023-09-03T07:26:29.898Z,99.90
2023-09-03T07:28:56.582Z,99.90
2023-09-03T07:31:23.381Z,99.90
2023-09-03T07:33:50.199Z,99.90
2023-09-03T07:36:16.900Z,99.90
2023-09-03T07:38:43.625Z,99.90
2023-09-03T07:41:10.427Z,99.90
2023-09-03T07:43:37.238Z,99.90
2023-09-03T07:46:04.506Z,99.90
2023-09-03T07:48:31.473Z,99.90
2023-09-03T07:50:58.186Z,99.90
2023-09-03T07:53:24.948Z,99.90
2023-09-03T07:55:51.695Z,99.90
2023-09-03T07:58:18.538Z,99.90
2023-09-03T08:00:45.449Z,99.90
2023-09-03T08:03:12.274Z,99.90
2023-09-03T08:05:39.069Z,99.90
2023-09-03T08:08:05.855Z,99.90
2023-09-03T08:10:32.604Z,99.90
2023-09-03T08:12:59.322Z,99.90
2023-09-03T08:15:41.394Z,99.90
2023-09-03T08:18:10.987Z,99.90
2023-09-03T08:20:37.742Z,99.90
2023-09-03T08:23:04.680Z,99.90
2023-09-03T08:25:31.420Z,99.90
2023-09-03T08:27:58.169Z,99.90
2023-09-03T08:30:25.810Z,99.90
2023-09-03T08:32:52.630Z,99.90
2023-09-03T08:35:19.388Z,99.90
2023-09-03T08:37:46.220Z,99.90
2023-09-03T08:40:13.324Z,99.90
2023-09-03T08:42:42.097Z,99.90
2023-09-03T08:45:12.228Z,99.90
2023-09-03T08:47:45.263Z,99.90
2023-09-03T08:50:14.290Z,99.90
2023-09-03T08:52:42.697Z,99.90
2023-09-03T08:55:13.678Z,99.90
2023-09-03T08:57:41.017Z,99.90
2023-09-03T09:00:09.127Z,99.90
2023-09-03T09:02:36.737Z,99.90
2023-09-03T09:05:08.842Z,99.90
2023-09-03T09:07:35.578Z,99.90
2023-09-03T09:10:18.127Z,99.90
2023-09-03T09:13:04.510Z,99.90
2023-09-03T09:15:31.268Z,99.90
2023-09-03T09:17:58.548Z,99.50
2023-09-03T09:20:25.416Z,99.10
2023-09-03T09:22:52.737Z,97.50
2023-09-03T09:25:24.325Z,97.20
2023-09-03T09:27:53.802Z,96.50
2023-09-03T09:30:28.221Z,97.30
2023-09-03T09:33:09.184Z,96.40
2023-09-03T09:35:36.283Z,95.20
2023-09-03T09:38:10.422Z,96.40
2023-09-03T09:40:37.801Z,96.90
2023-09-03T09:43:08.345Z,95.40
2023-09-03T09:45:49.528Z,94.40
2023-09-03T09:48:16.872Z,93.60
2023-09-03T09:50:45.579Z,92.70
2023-09-03T09:53:28.441Z,89.50
2023-09-03T09:56:03.728Z,90.40
2023-09-03T09:58:38.574Z,90.50
2023-09-03T10:01:06.806Z,88.80
2023-09-03T10:03:49.093Z,89.70
2023-09-03T10:06:17.381Z,89.90
2023-09-03T10:08:47.642Z,89.90
2023-09-03T10:11:17.873Z,88.70
2023-09-03T10:13:45.122Z,87.90
2023-09-03T10:16:12.594Z,87.80
2023-09-03T10:18:44.497Z,88.00
2023-09-03T10:21:12.573Z,89.10
2023-09-03T10:23:50.918Z,89.30
2023-09-03T10:26:34.651Z,89.20
2023-09-03T10:29:05.390Z,89.50
2023-09-03T10:31:34.508Z,87.90
2023-09-03T10:34:01.384Z,87.50
2023-09-03T10:36:28.328Z,87.10
2023-09-03T10:38:58.909Z,87.60
2023-09-03T10:41:26.428Z,88.10
2023-09-03T10:43:54.911Z,88.20
2023-09-03T10:46:23.940Z,88.40
2023-09-03T10:48:58.756Z,86.90
2023-09-03T10:51:42.418Z,87.70
2023-09-03T10:54:22.537Z,84.50
2023-09-03T10:57:16.495Z,85.40
2023-09-03T11:00:05.923Z,85.30
2023-09-03T11:02:34.224Z,85.10
2023-09-03T11:05:14.245Z,84.50
2023-09-03T11:07:42.458Z,83.50
2023-09-03T11:10:21.456Z,80.70
2023-09-03T11:12:51.391Z,81.90
2023-09-03T11:15:19.297Z,80.90
2023-09-03T11:17:57.194Z,82.40
2023-09-03T11:20:47.874Z,83.30
2023-09-03T11:23:18.693Z,83.30
2023-09-03T11:25:46.394Z,81.50
2023-09-03T11:28:14.125Z,80.00
2023-09-03T11:30:45.552Z,80.70
2023-09-03T11:33:28.745Z,81.30
2023-09-03T11:35:56.085Z,82.10
2023-09-03T11:38:28.588Z,81.40
2023-09-03T11:40:56.815Z,81.60
2023-09-03T11:43:25.003Z,82.80
2023-09-03T11:45:51.898Z,82.30
2023-09-03T11:48:26.445Z,82.10
2023-09-03T11:50:53.959Z,80.10
2023-09-03T11:53:22.029Z,79.50
2023-09-03T11:55:56.085Z,80.70
2023-09-03T11:58:26.898Z,79.80
2023-09-03T12:00:54.925Z,80.20
2023-09-03T12:03:23.942Z,80.30
2023-09-03T12:05:51.230Z,80.90
2023-09-03T12:08:18.734Z,82.10
2023-09-03T12:10:49.996Z,82.30
2023-09-03T12:13:38.403Z,82.60
2023-09-03T12:16:10.686Z,80.60
2023-09-03T12:18:39.599Z,79.90
2023-09-03T12:21:09.025Z,81.90
2023-09-03T12:23:36.505Z,81.60
2023-09-03T12:26:03.615Z,81.40
2023-09-03T12:28:38.609Z,81.80
2023-09-03T12:31:07.472Z,81.80
2023-09-03T12:33:34.249Z,80.60
2023-09-03T12:36:27.283Z,80.80
2023-09-03T12:39:03.840Z,79.70
2023-09-03T12:41:38.646Z,80.30
2023-09-03T12:44:07.744Z,81.30
2023-09-03T12:46:35.979Z,81.50
2023-09-03T12:49:04.159Z,81.80
2023-09-03T12:51:31.634Z,80.30
2023-09-03T12:53:58.399Z,78.90
2023-09-03T12:56:25.227Z,79.70
2023-09-03T12:58:51.979Z,80.10
2023-09-03T13:01:18.830Z,80.90
2023-09-03T13:03:46.526Z,80.80
2023-09-03T13:06:13.574Z,78.50
2023-09-03T13:08:40.469Z,79.20
2023-09-03T13:11:07.257Z,80.10
2023-09-03T13:13:34.045Z,79.20
2023-09-03T13:16:02.017Z,80.10
2023-09-03T13:18:28.805Z,80.30
2023-09-03T13:20:55.726Z,80.00
2023-09-03T13:23:22.658Z,80.90
2023-09-03T13:25:49.572Z,80.50
2023-09-03T13:28:16.286Z,80.00
2023-09-03T13:30:53.562Z,81.40
2023-09-03T13:33:24.908Z,81.30
2023-09-03T13:35:56.670Z,81.80
2023-09-03T13:38:24.275Z,81.90
2023-09-03T13:40:52.773Z,83.10
2023-09-03T13:43:24.141Z,82.20
2023-09-03T13:45:59.509Z,80.50
2023-09-03T13:48:26.854Z,80.20
2023-09-03T13:50:55.610Z,80.60
2023-09-03T13:53:22.765Z,79.40
2023-09-03T13:55:50.161Z,80.10
2023-09-03T13:58:17.635Z,80.80
2023-09-03T14:00:44.387Z,81.00
2023-09-03T14:03:11.322Z,80.30
2023-09-03T14:05:38.197Z,80.50
2023-09-03T14:08:05.128Z,80.50
2023-09-03T14:10:31.821Z,81.10
2023-09-03T14:12:58.735Z,80.10
2023-09-03T14:15:25.459Z,79.70
2023-09-03T14:17:52.214Z,81.10
2023-09-03T14:20:19.067Z,80.40
2023-09-03T14:22:45.889Z,79.50
2023-09-03T14:25:12.837Z,79.20
2023-09-03T14:27:39.537Z,79.50
2023-09-03T14:30:06.837Z,79.90
2023-09-03T14:32:33.557Z,80.90
2023-09-03T14:35:00.792Z,80.30
2023-09-03T14:37:28.145Z,80.60
2023-09-03T14:39:54.905Z,80.50
2023-09-03T14:42:21.731Z,80.80
2023-09-03T14:44:48.528Z,80.70
2023-09-03T14:47:15.228Z,80.90
2023-09-03T14:49:45.353Z,80.10
2023-09-03T14:52:12.875Z,81.00
2023-09-03T14:54:40.052Z,82.00
2023-09-03T14:57:09.046Z,80.90
2023-09-03T14:59:35.890Z,79.80
2023-09-03T15:02:02.790Z,79.40
2023-09-03T15:04:32.503Z,79.90
2023-09-03T15:06:59.503Z,80.30
2023-09-03T15:09:26.346Z,81.20
2023-09-03T15:11:53.180Z,80.70
2023-09-03T15:14:20.038Z,80.80
2023-09-03T15:16:46.764Z,80.70
2023-09-03T15:19:13.445Z,80.40
2023-09-03T15:21:40.981Z,80.80
2023-09-03T15:24:07.787Z,80.10
2023-09-03T15:26:34.553Z,79.60
2023-09-03T15:29:02.852Z,80.60
2023-09-03T15:31:29.749Z,80.60
2023-09-03T15:33:56.475Z,80.00
2023-09-03T15:36:23.242Z,80.50
2023-09-03T15:38:49.989Z,81.10
2023-09-03T15:41:16.726Z,80.70
2023-09-03T15:43:44.923Z,80.50
2023-09-03T15:46:13.269Z,81.40
2023-09-03T15:48:40.158Z,81.40
2023-09-03T15:51:06.879Z,81.40
2023-09-03T15:53:33.580Z,83.30
2023-09-03T15:56:00.606Z,82.40
2023-09-03T15:58:27.390Z,82.80
2023-09-03T16:00:54.108Z,82.60
2023-09-03T16:03:22.820Z,82.50
2023-09-03T16:05:49.924Z,82.00
2023-09-03T16:08:16.672Z,81.60
2023-09-03T16:10:43.395Z,81.50
2023-09-03T16:13:10.253Z,81.60
2023-09-03T16:15:41.629Z,83.00
2023-09-03T16:18:09.133Z,82.90
2023-09-03T16:20:37.399Z,82.50
2023-09-03T16:23:04.440Z,81.90
2023-09-03T16:25:31.538Z,82.80
2023-09-03T16:27:58.423Z,83.50
2023-09-03T16:30:25.945Z,82.90
2023-09-03T16:32:53.911Z,82.70
2023-09-03T16:35:22.658Z,82.70
2023-09-03T16:37:50.859Z,83.10
2023-09-03T16:40:17.702Z,82.20
2023-09-03T16:42:45.960Z,83.60
2023-09-03T16:45:12.918Z,82.90
2023-09-03T16:47:40.580Z,83.70
2023-09-03T16:50:07.870Z,83.60
2023-09-03T16:52:35.029Z,83.30
2023-09-03T16:55:02.140Z,83.90
2023-09-03T16:57:29.037Z,84.50
2023-09-03T16:59:55.958Z,85.00
2023-09-03T17:02:22.997Z,85.40
2023-09-03T17:04:49.913Z,86.80
2023-09-03T17:07:16.746Z,86.50
2023-09-03T17:09:43.606Z,86.20
2023-09-03T17:12:12.766Z,86.10
2023-09-03T17:14:39.550Z,86.60
2023-09-03T17:17:07.710Z,87.10
2023-09-03T17:19:36.089Z,88.30
2023-09-03T17:22:03.545Z,89.00
2023-09-03T17:24:30.715Z,89.00
2023-09-03T17:26:57.552Z,90.00
2023-09-03T17:29:24.316Z,90.60
2023-09-03T17:31:52.309Z,90.40
2023-09-03T17:34:19.968Z,90.50
2023-09-03T17:36:47.567Z,90.50
2023-09-03T17:39:15.337Z,90.20
2023-09-03T17:41:42.479Z,88.70
2023-09-03T17:44:09.298Z,89.10
2023-09-03T17:46:36.227Z,87.50
2023-09-03T17:49:04.590Z,87.40
2023-09-03T17:51:31.428Z,86.60
2023-09-03T17:53:58.273Z,87.30
2023-09-03T17:56:25.405Z,88.20
2023-09-03T17:58:52.176Z,86.90
2023-09-03T18:01:19.252Z,86.70
2023-09-03T18:03:46.351Z,87.00
2023-09-03T18:06:14.300Z,87.40
2023-09-03T18:08:41.155Z,88.20
2023-09-03T18:11:13.038Z,88.80
2023-09-03T18:13:41.003Z,89.00
2023-09-03T18:16:07.933Z,89.60
2023-09-03T18:18:34.945Z,90.10
2023-09-03T18:21:01.668Z,90.00
2023-09-03T18:23:28.439Z,90.50
2023-09-03T18:25:55.174Z,90.90
2023-09-03T18:28:22.165Z,91.20
2023-09-03T18:30:49.071Z,91.20
2023-09-03T18:33:16.104Z,91.70
2023-09-03T18:35:42.779Z,91.50
2023-09-03T18:38:09.493Z,91.40
2023-09-03T18:40:38.187Z,91.80
2023-09-03T18:43:05.142Z,92.10
2023-09-03T18:45:31.869Z,92.50
2023-09-03T18:48:00.847Z,92.80
2023-09-03T18:50:27.657Z,93.20
2023-09-03T18:52:54.364Z,93.20
2023-09-03T18:55:21.277Z,93.30
2023-09-03T18:57:48.074Z,93.20
2023-09-03T19:00:15.227Z,93.30
2023-09-03T19:02:42.466Z,93.00
2023-09-03T19:05:09.403Z,93.50
2023-09-03T19:07:36.185Z,93.30
2023-09-03T19:10:02.953Z,93.20
2023-09-03T19:12:34.091Z,93.20
2023-09-03T19:15:00.823Z,93.40
2023-09-03T19:17:28.268Z,93.10
2023-09-03T19:19:55.143Z,93.70
2023-09-03T19:22:22.060Z,93.60
2023-09-03T19:24:54.599Z,93.70
2023-09-03T19:27:22.693Z,94.00
2023-09-03T19:29:49.942Z,94.00
2023-09-03T19:32:17.811Z,94.10
2023-09-03T19:34:44.620Z,94.50
2023-09-03T19:37:11.333Z,94.60
2023-09-03T19:39:38.150Z,93.90
2023-09-03T19:42:05.154Z,94.10
2023-09-03T19:44:31.873Z,94.30
2023-09-03T19:46:58.665Z,93.90
2023-09-03T19:49:25.508Z,94.40
2023-09-03T19:51:54.778Z,94.60
2023-09-03T19:54:23.246Z,94.70
2023-09-03T19:56:50.684Z,95.00
2023-09-03T19:59:17.468Z,95.50
2023-09-03T20:01:44.239Z,95.30
2023-09-03T20:04:11.033Z,95.90
2023-09-03T20:06:37.829Z,95.50
2023-09-03T20:09:06.700Z,95.90
2023-09-03T20:11:33.992Z,95.80
2023-09-03T20:14:00.806Z,96.00
2023-09-03T20:16:28.769Z,96.20
2023-09-03T20:18:55.932Z,96.40
2023-09-03T20:21:22.990Z,96.60
2023-09-03T20:23:49.785Z,96.90
2023-09-03T20:26:17.470Z,97.20
2023-09-03T20:28:47.375Z,97.10
2023-09-03T20:31:16.395Z,97.30
2023-09-03T20:33:43.446Z,97.20
2023-09-03T20:36:10.231Z,97.20
2023-09-03T20:38:37.163Z,97.10
2023-09-03T20:41:05.049Z,97.20
2023-09-03T20:43:32.043Z,97.70
2023-09-03T20:45:59.831Z,97.90
2023-09-03T20:48:27.272Z,97.80
2023-09-03T20:50:54.694Z,98.00
2023-09-03T20:53:21.638Z,98.10
2023-09-03T20:55:53.175Z,98.10
2023-09-03T20:58:21.201Z,98.10
2023-09-03T21:00:48.610Z,97.80
2023-09-03T21:03:16.216Z,97.70
2023-09-03T21:05:51.056Z,97.60
2023-09-03T21:08:18.934Z,97.50
2023-09-03T21:10:52.696Z,97.70
2023-09-03T21:13:19.482Z,97.80
2023-09-03T21:15:46.530Z,98.20
2023-09-03T21:18:13.224Z,98.50
2023-09-03T21:20:39.921Z,98.20
2023-09-03T21:23:06.606Z,98.70
2023-09-03T21:25:36.573Z,98.60
2023-09-03T21:28:03.488Z,98.90
2023-09-03T21:30:32.216Z,99.60
2023-09-03T21:32:58.950Z,99.50
2023-09-03T21:35:25.784Z,99.40
2023-09-03T21:37:52.519Z,99.90
2023-09-03T21:40:20.245Z,99.20
2023-09-03T21:42:51.314Z,99.10
2023-09-03T21:45:18.170Z,99.20
2023-09-03T21:47:44.982Z,99.30
2023-09-03T21:50:11.758Z,99.40
2023-09-03T21:52:38.626Z,99.20
2023-09-03T21:55:05.844Z,99.40
2023-09-03T21:57:32.629Z,99.20
2023-09-03T21:59:59.313Z,99.30
2023-09-03T22:02:26.174Z,99.30
2023-09-03T22:04:59.038Z,99.30
2023-09-03T22:07:26.411Z,99.20
2023-09-03T22:09:53.357Z,99.20
2023-09-03T22:12:20.227Z,99.30
2023-09-03T22:14:47.214Z,99.20
2023-09-03T22:17:14.335Z,99.40
2023-09-03T22:19:41.292Z,99.10
2023-09-03T22:22:08.020Z,99.20
2023-09-03T22:24:34.702Z,99.60
2023-09-03T22:27:01.477Z,99.40
2023-09-03T22:29:28.238Z,99.50
2023-09-03T22:31:54.952Z,99.80
2023-09-03T22:34:21.670Z,99.70
2023-09-03T22:36:48.447Z,99.50
2023-09-03T22:39:15.457Z,99.60
2023-09-03T22:41:42.152Z,99.90
2023-09-03T22:44:08.900Z,99.90
2023-09-03T22:46:35.596Z,99.90
2023-09-03T22:49:02.343Z,99.90
2023-09-03T22:51:29.220Z,99.90
2023-09-03T22:53:55.992Z,99.90
2023-09-03T22:56:22.969Z,99.90
2023-09-03T22:58:50.674Z,99.90
2023-09-03T23:01:17.568Z,99.90
2023-09-03T23:03:44.544Z,99.90
2023-09-03T23:06:11.438Z,99.90
2023-09-03T23:08:38.200Z,99.90
2023-09-03T23:11:05.072Z,99.90
2023-09-03T23:13:31.788Z,99.90
2023-09-03T23:15:58.953Z,99.90
2023-09-03T23:18:25.929Z,99.90
2023-09-03T23:20:53.360Z,99.90
2023-09-03T23:23:20.432Z,99.90
2023-09-03T23:25:49.872Z,99.90
2023-09-03T23:28:17.801Z,99.90
2023-09-03T23:30:44.732Z,99.90
2023-09-03T23:33:11.664Z,99.90
2023-09-03T23:35:38.403Z,99.90
2023-09-03T23:38:05.125Z,99.90
2023-09-03T23:40:31.822Z,99.90
2023-09-03T23:42:58.533Z,99.90
2023-09-03T23:45:25.275Z,99.90
2023-09-03T23:47:52.042Z,99.90
2023-09-03T23:50:18.802Z,99.90
2023-09-03T23:52:45.556Z,99.90
2023-09-03T23:55:12.337Z,99.90
2023-09-03T23:57:39.109Z,99.90
